sensor_id;sensor_type;location;lat;lon;timestamp;pressure;altitude;pressure_sealevel;temperature;humidity
76728;BME280;65652;53.132;18.026;2022-12-11T00:02:24;100548.91;;;0.09;69.56
76728;BME280;65652;53.132;18.026;2022-12-11T00:04:51;100551.14;;;0.06;69.70
76728;BME280;65652;53.132;18.026;2022-12-11T00:07:18;100550.75;;;0.03;69.72
76728;BME280;65652;53.132;18.026;2022-12-11T00:09:44;100549.33;;;0.01;69.49
76728;BME280;65652;53.132;18.026;2022-12-11T00:12:11;100545.13;;;-0.02;69.60
76728;BME280;65652;53.132;18.026;2022-12-11T00:14:38;100542.13;;;-0.09;69.45
76728;BME280;65652;53.132;18.026;2022-12-11T00:17:05;100540.63;;;-0.13;69.57
76728;BME280;65652;53.132;18.026;2022-12-11T00:19:32;100537.29;;;-0.17;69.27
76728;BME280;65652;53.132;18.026;2022-12-11T00:21:58;100531.04;;;-0.20;69.65
76728;BME280;65652;53.132;18.026;2022-12-11T00:24:25;100533.73;;;-0.22;69.50
76728;BME280;65652;53.132;18.026;2022-12-11T00:26:52;100536.52;;;-0.19;69.71
76728;BME280;65652;53.132;18.026;2022-12-11T00:29:19;100534.86;;;-0.13;69.71
76728;BME280;65652;53.132;18.026;2022-12-11T00:31:45;100536.30;;;-0.07;69.61
76728;BME280;65652;53.132;18.026;2022-12-11T00:34:12;100533.29;;;-0.02;69.36
76728;BME280;65652;53.132;18.026;2022-12-11T00:36:39;100530.16;;;0.02;69.21
76728;BME280;65652;53.132;18.026;2022-12-11T00:39:06;100526.35;;;0.06;68.98
76728;BME280;65652;53.132;18.026;2022-12-11T00:41:33;100526.11;;;0.07;68.86
76728;BME280;65652;53.132;18.026;2022-12-11T00:44:00;100528.61;;;0.09;68.86
76728;BME280;65652;53.132;18.026;2022-12-11T00:46:27;100529.23;;;0.11;68.82
76728;BME280;65652;53.132;18.026;2022-12-11T00:48:53;100528.31;;;0.12;69.03
76728;BME280;65652;53.132;18.026;2022-12-11T00:51:20;100529.11;;;0.13;68.92
76728;BME280;65652;53.132;18.026;2022-12-11T00:53:47;100526.20;;;0.12;69.00
76728;BME280;65652;53.132;18.026;2022-12-11T00:56:17;100530.67;;;0.09;68.79
76728;BME280;65652;53.132;18.026;2022-12-11T00:58:46;100534.69;;;0.06;68.93
76728;BME280;65652;53.132;18.026;2022-12-11T01:01:19;100533.63;;;0.02;68.70
76728;BME280;65652;53.132;18.026;2022-12-11T01:03:46;100533.67;;;-0.02;68.69
76728;BME280;65652;53.132;18.026;2022-12-11T01:06:15;100529.70;;;-0.07;68.61
76728;BME280;65652;53.132;18.026;2022-12-11T01:08:43;100521.87;;;-0.13;68.50
76728;BME280;65652;53.132;18.026;2022-12-11T01:11:13;100521.17;;;-0.17;68.56
76728;BME280;65652;53.132;18.026;2022-12-11T01:13:40;100515.90;;;-0.23;68.57
76728;BME280;65652;53.132;18.026;2022-12-11T01:16:13;100519.14;;;-0.25;68.65
76728;BME280;65652;53.132;18.026;2022-12-11T01:18:41;100515.77;;;-0.28;68.77
76728;BME280;65652;53.132;18.026;2022-12-11T01:21:10;100515.66;;;-0.29;68.85
76728;BME280;65652;53.132;18.026;2022-12-11T01:23:38;100510.90;;;-0.31;68.98
76728;BME280;65652;53.132;18.026;2022-12-11T01:26:12;100514.96;;;-0.33;69.24
76728;BME280;65652;53.132;18.026;2022-12-11T01:28:40;100514.33;;;-0.34;68.99
76728;BME280;65652;53.132;18.026;2022-12-11T01:31:12;100515.58;;;-0.35;69.18
76728;BME280;65652;53.132;18.026;2022-12-11T01:33:39;100511.10;;;-0.35;69.21
76728;BME280;65652;53.132;18.026;2022-12-11T01:36:16;100506.91;;;-0.35;69.28
76728;BME280;65652;53.132;18.026;2022-12-11T01:38:44;100503.85;;;-0.32;69.37
76728;BME280;65652;53.132;18.026;2022-12-11T01:41:12;100498.25;;;-0.28;69.37
76728;BME280;65652;53.132;18.026;2022-12-11T01:46:41;100503.79;;;-0.20;69.19
76728;BME280;65652;53.132;18.026;2022-12-11T01:49:11;100504.23;;;-0.15;69.39
76728;BME280;65652;53.132;18.026;2022-12-11T01:52:01;100500.90;;;-0.14;68.84
76728;BME280;65652;53.132;18.026;2022-12-11T01:54:29;100504.38;;;-0.18;68.84
76728;BME280;65652;53.132;18.026;2022-12-11T01:56:59;100512.23;;;-0.22;68.86
76728;BME280;65652;53.132;18.026;2022-12-11T01:59:30;100516.70;;;-0.26;68.80
76728;BME280;65652;53.132;18.026;2022-12-11T02:02:03;100518.90;;;-0.28;68.69
76728;BME280;65652;53.132;18.026;2022-12-11T02:04:34;100518.70;;;-0.31;68.37
76728;BME280;65652;53.132;18.026;2022-12-11T02:07:02;100516.99;;;-0.36;68.05
76728;BME280;65652;53.132;18.026;2022-12-11T02:09:33;100519.59;;;-0.38;68.37
76728;BME280;65652;53.132;18.026;2022-12-11T02:12:05;100514.77;;;-0.40;68.46
76728;BME280;65652;53.132;18.026;2022-12-11T02:17:15;100517.16;;;-0.43;68.51
76728;BME280;65652;53.132;18.026;2022-12-11T02:20:04;100519.58;;;-0.42;68.89
76728;BME280;65652;53.132;18.026;2022-12-11T02:31:24;100521.38;;;-0.60;68.61
76728;BME280;65652;53.132;18.026;2022-12-11T02:36:32;100512.80;;;-0.53;68.59
76728;BME280;65652;53.132;18.026;2022-12-11T02:39:02;100504.69;;;-0.51;68.26
76728;BME280;65652;53.132;18.026;2022-12-11T02:41:31;100501.53;;;-0.46;68.34
76728;BME280;65652;53.132;18.026;2022-12-11T02:44:01;100494.73;;;-0.41;68.45
76728;BME280;65652;53.132;18.026;2022-12-11T02:46:30;100496.34;;;-0.39;68.29
76728;BME280;65652;53.132;18.026;2022-12-11T02:49:02;100494.63;;;-0.39;68.39
76728;BME280;65652;53.132;18.026;2022-12-11T02:51:34;100495.61;;;-0.42;68.45
76728;BME280;65652;53.132;18.026;2022-12-11T02:54:06;100497.14;;;-0.45;68.52
76728;BME280;65652;53.132;18.026;2022-12-11T02:56:44;100495.98;;;-0.46;68.81
76728;BME280;65652;53.132;18.026;2022-12-11T02:59:30;100502.10;;;-0.47;68.94
76728;BME280;65652;53.132;18.026;2022-12-11T03:01:58;100500.09;;;-0.53;68.87
76728;BME280;65652;53.132;18.026;2022-12-11T03:04:25;100495.17;;;-0.59;68.95
76728;BME280;65652;53.132;18.026;2022-12-11T03:06:54;100494.02;;;-0.64;69.01
76728;BME280;65652;53.132;18.026;2022-12-11T03:09:26;100494.96;;;-0.73;69.02
76728;BME280;65652;53.132;18.026;2022-12-11T03:11:54;100492.38;;;-0.82;69.43
76728;BME280;65652;53.132;18.026;2022-12-11T03:14:20;100491.51;;;-0.89;69.44
76728;BME280;65652;53.132;18.026;2022-12-11T03:16:55;100489.49;;;-0.91;69.55
76728;BME280;65652;53.132;18.026;2022-12-11T03:19:31;100485.59;;;-0.89;69.67
76728;BME280;65652;53.132;18.026;2022-12-11T03:22:14;100484.73;;;-0.85;69.65
76728;BME280;65652;53.132;18.026;2022-12-11T03:24:50;100479.95;;;-0.82;69.73
76728;BME280;65652;53.132;18.026;2022-12-11T03:27:25;100474.20;;;-0.82;69.62
76728;BME280;65652;53.132;18.026;2022-12-11T03:29:54;100475.77;;;-0.82;69.64
76728;BME280;65652;53.132;18.026;2022-12-11T03:32:27;100471.81;;;-0.86;69.63
76728;BME280;65652;53.132;18.026;2022-12-11T03:35:04;100470.86;;;-0.89;69.78
76728;BME280;65652;53.132;18.026;2022-12-11T03:37:35;100473.51;;;-0.93;69.82
76728;BME280;65652;53.132;18.026;2022-12-11T03:40:09;100479.52;;;-0.96;69.91
76728;BME280;65652;53.132;18.026;2022-12-11T03:42:38;100478.90;;;-1.02;69.96
76728;BME280;65652;53.132;18.026;2022-12-11T03:45:07;100468.96;;;-1.08;70.04
76728;BME280;65652;53.132;18.026;2022-12-11T03:47:35;100465.71;;;-1.13;70.24
76728;BME280;65652;53.132;18.026;2022-12-11T03:50:06;100460.95;;;-1.20;70.20
76728;BME280;65652;53.132;18.026;2022-12-11T03:52:35;100461.33;;;-1.28;70.29
76728;BME280;65652;53.132;18.026;2022-12-11T03:55:04;100462.48;;;-1.31;70.41
76728;BME280;65652;53.132;18.026;2022-12-11T03:57:34;100465.17;;;-1.29;70.58
76728;BME280;65652;53.132;18.026;2022-12-11T04:00:04;100471.27;;;-1.26;70.45
76728;BME280;65652;53.132;18.026;2022-12-11T04:02:39;100469.79;;;-1.23;70.35
76728;BME280;65652;53.132;18.026;2022-12-11T04:05:07;100467.33;;;-1.19;70.16
76728;BME280;65652;53.132;18.026;2022-12-11T04:07:34;100465.73;;;-1.17;70.16
76728;BME280;65652;53.132;18.026;2022-12-11T04:10:02;100468.30;;;-1.21;69.83
76728;BME280;65652;53.132;18.026;2022-12-11T04:12:30;100474.14;;;-1.24;69.87
76728;BME280;65652;53.132;18.026;2022-12-11T04:14:56;100472.45;;;-1.28;69.73
76728;BME280;65652;53.132;18.026;2022-12-11T04:17:31;100470.85;;;-1.36;69.83
76728;BME280;65652;53.132;18.026;2022-12-11T04:20:17;100474.70;;;-1.41;70.01
76728;BME280;65652;53.132;18.026;2022-12-11T04:23:12;100477.91;;;-1.44;70.13
76728;BME280;65652;53.132;18.026;2022-12-11T04:26:10;100472.20;;;-1.47;70.36
76728;BME280;65652;53.132;18.026;2022-12-11T04:28:37;100467.14;;;-1.51;70.57
76728;BME280;65652;53.132;18.026;2022-12-11T04:31:05;100464.85;;;-1.53;70.56
76728;BME280;65652;53.132;18.026;2022-12-11T04:33:36;100456.68;;;-1.57;70.58
76728;BME280;65652;53.132;18.026;2022-12-11T04:36:03;100456.58;;;-1.59;70.45
76728;BME280;65652;53.132;18.026;2022-12-11T04:38:29;100456.35;;;-1.58;70.35
76728;BME280;65652;53.132;18.026;2022-12-11T04:40:58;100456.98;;;-1.52;70.31
76728;BME280;65652;53.132;18.026;2022-12-11T04:43:25;100457.81;;;-1.47;70.30
76728;BME280;65652;53.132;18.026;2022-12-11T04:46:06;100464.11;;;-1.45;70.12
76728;BME280;65652;53.132;18.026;2022-12-11T04:48:34;100467.79;;;-1.45;69.86
76728;BME280;65652;53.132;18.026;2022-12-11T04:51:01;100470.56;;;-1.49;69.80
76728;BME280;65652;53.132;18.026;2022-12-11T04:53:28;100470.64;;;-1.52;69.70
76728;BME280;65652;53.132;18.026;2022-12-11T04:55:55;100463.26;;;-1.53;69.58
76728;BME280;65652;53.132;18.026;2022-12-11T04:58:23;100462.38;;;-1.56;69.36
76728;BME280;65652;53.132;18.026;2022-12-11T05:00:50;100467.58;;;-1.62;69.62
76728;BME280;65652;53.132;18.026;2022-12-11T05:03:17;100462.94;;;-1.65;69.43
76728;BME280;65652;53.132;18.026;2022-12-11T05:05:52;100459.68;;;-1.71;69.60
76728;BME280;65652;53.132;18.026;2022-12-11T05:08:20;100460.54;;;-1.75;69.72
76728;BME280;65652;53.132;18.026;2022-12-11T05:11:03;100465.37;;;-1.78;69.68
76728;BME280;65652;53.132;18.026;2022-12-11T05:13:31;100454.99;;;-1.83;69.72
76728;BME280;65652;53.132;18.026;2022-12-11T05:15:58;100450.63;;;-1.86;69.76
76728;BME280;65652;53.132;18.026;2022-12-11T05:18:25;100455.25;;;-1.89;69.53
76728;BME280;65652;53.132;18.026;2022-12-11T05:21:09;100458.11;;;-1.87;70.00
76728;BME280;65652;53.132;18.026;2022-12-11T05:23:37;100452.64;;;-1.81;69.99
76728;BME280;65652;53.132;18.026;2022-12-11T05:26:07;100446.84;;;-1.74;70.03
76728;BME280;65652;53.132;18.026;2022-12-11T05:28:37;100446.19;;;-1.71;69.88
76728;BME280;65652;53.132;18.026;2022-12-11T05:31:07;100440.07;;;-1.69;69.99
76728;BME280;65652;53.132;18.026;2022-12-11T05:33:34;100436.65;;;-1.67;69.85
76728;BME280;65652;53.132;18.026;2022-12-11T05:36:01;100437.11;;;-1.65;69.84
76728;BME280;65652;53.132;18.026;2022-12-11T05:38:29;100431.59;;;-1.65;70.02
76728;BME280;65652;53.132;18.026;2022-12-11T05:41:02;100432.30;;;-1.66;69.99
76728;BME280;65652;53.132;18.026;2022-12-11T05:43:31;100428.04;;;-1.67;69.92
76728;BME280;65652;53.132;18.026;2022-12-11T05:46:11;100422.86;;;-1.68;70.03
76728;BME280;65652;53.132;18.026;2022-12-11T05:48:39;100418.20;;;-1.68;70.26
76728;BME280;65652;53.132;18.026;2022-12-11T05:51:06;100412.77;;;-1.71;70.13
76728;BME280;65652;53.132;18.026;2022-12-11T05:53:35;100413.67;;;-1.72;70.19
76728;BME280;65652;53.132;18.026;2022-12-11T05:56:05;100416.95;;;-1.72;70.38
76728;BME280;65652;53.132;18.026;2022-12-11T05:58:33;100419.77;;;-1.72;70.37
76728;BME280;65652;53.132;18.026;2022-12-11T06:01:01;100421.20;;;-1.74;70.62
76728;BME280;65652;53.132;18.026;2022-12-11T06:03:28;100419.71;;;-1.71;70.50
76728;BME280;65652;53.132;18.026;2022-12-11T06:05:55;100414.64;;;-1.65;70.51
76728;BME280;65652;53.132;18.026;2022-12-11T06:08:22;100412.29;;;-1.59;70.61
76728;BME280;65652;53.132;18.026;2022-12-11T06:10:49;100414.81;;;-1.53;70.48
76728;BME280;65652;53.132;18.026;2022-12-11T06:13:16;100415.14;;;-1.49;70.48
76728;BME280;65652;53.132;18.026;2022-12-11T06:15:43;100415.09;;;-1.44;70.57
76728;BME280;65652;53.132;18.026;2022-12-11T06:18:09;100413.02;;;-1.40;70.43
76728;BME280;65652;53.132;18.026;2022-12-11T06:20:36;100414.05;;;-1.40;70.45
76728;BME280;65652;53.132;18.026;2022-12-11T06:23:03;100417.74;;;-1.41;70.48
76728;BME280;65652;53.132;18.026;2022-12-11T06:25:30;100421.31;;;-1.44;70.45
76728;BME280;65652;53.132;18.026;2022-12-11T06:27:57;100423.17;;;-1.47;70.41
76728;BME280;65652;53.132;18.026;2022-12-11T06:30:24;100423.96;;;-1.48;70.32
76728;BME280;65652;53.132;18.026;2022-12-11T06:32:51;100421.96;;;-1.51;70.23
76728;BME280;65652;53.132;18.026;2022-12-11T06:35:18;100423.75;;;-1.52;70.28
76728;BME280;65652;53.132;18.026;2022-12-11T06:37:45;100419.82;;;-1.53;70.14
76728;BME280;65652;53.132;18.026;2022-12-11T06:40:11;100421.18;;;-1.57;70.14
76728;BME280;65652;53.132;18.026;2022-12-11T06:42:38;100423.34;;;-1.58;70.19
76728;BME280;65652;53.132;18.026;2022-12-11T06:45:06;100424.87;;;-1.62;69.96
76728;BME280;65652;53.132;18.026;2022-12-11T06:47:33;100428.83;;;-1.65;69.92
76728;BME280;65652;53.132;18.026;2022-12-11T06:50:00;100428.84;;;-1.70;69.89
76728;BME280;65652;53.132;18.026;2022-12-11T06:52:27;100435.75;;;-1.70;70.00
76728;BME280;65652;53.132;18.026;2022-12-11T06:54:55;100434.46;;;-1.68;69.99
76728;BME280;65652;53.132;18.026;2022-12-11T06:57:22;100435.16;;;-1.64;69.99
76728;BME280;65652;53.132;18.026;2022-12-11T06:59:49;100434.34;;;-1.57;69.97
76728;BME280;65652;53.132;18.026;2022-12-11T07:02:17;100437.19;;;-1.50;70.07
76728;BME280;65652;53.132;18.026;2022-12-11T07:04:45;100441.45;;;-1.45;69.99
76728;BME280;65652;53.132;18.026;2022-12-11T07:07:12;100437.58;;;-1.39;70.07
76728;BME280;65652;53.132;18.026;2022-12-11T07:09:39;100437.23;;;-1.36;69.82
76728;BME280;65652;53.132;18.026;2022-12-11T07:12:06;100436.64;;;-1.38;69.69
76728;BME280;65652;53.132;18.026;2022-12-11T07:14:33;100436.56;;;-1.40;69.58
76728;BME280;65652;53.132;18.026;2022-12-11T07:17:00;100431.38;;;-1.48;69.39
76728;BME280;65652;53.132;18.026;2022-12-11T07:19:27;100428.81;;;-1.57;69.68
76728;BME280;65652;53.132;18.026;2022-12-11T07:21:54;100423.05;;;-1.60;69.87
76728;BME280;65652;53.132;18.026;2022-12-11T07:24:21;100424.80;;;-1.64;69.87
76728;BME280;65652;53.132;18.026;2022-12-11T07:26:48;100420.05;;;-1.67;70.11
76728;BME280;65652;53.132;18.026;2022-12-11T07:29:14;100423.03;;;-1.67;70.25
76728;BME280;65652;53.132;18.026;2022-12-11T07:31:41;100418.80;;;-1.70;70.18
76728;BME280;65652;53.132;18.026;2022-12-11T07:34:11;100422.59;;;-1.69;70.16
76728;BME280;65652;53.132;18.026;2022-12-11T07:36:38;100421.04;;;-1.69;70.27
76728;BME280;65652;53.132;18.026;2022-12-11T07:39:05;100427.39;;;-1.69;70.38
76728;BME280;65652;53.132;18.026;2022-12-11T07:41:33;100427.57;;;-1.69;70.41
76728;BME280;65652;53.132;18.026;2022-12-11T07:44:01;100425.05;;;-1.71;70.37
76728;BME280;65652;53.132;18.026;2022-12-11T07:46:30;100423.48;;;-1.70;70.54
76728;BME280;65652;53.132;18.026;2022-12-11T07:48:57;100420.10;;;-1.67;70.65
76728;BME280;65652;53.132;18.026;2022-12-11T07:51:31;100421.37;;;-1.65;70.73
76728;BME280;65652;53.132;18.026;2022-12-11T07:54:00;100421.30;;;-1.60;70.67
76728;BME280;65652;53.132;18.026;2022-12-11T07:56:28;100417.92;;;-1.53;70.63
76728;BME280;65652;53.132;18.026;2022-12-11T07:59:01;100420.82;;;-1.48;70.63
76728;BME280;65652;53.132;18.026;2022-12-11T08:01:30;100417.49;;;-1.44;70.69
76728;BME280;65652;53.132;18.026;2022-12-11T08:03:57;100416.80;;;-1.43;70.70
76728;BME280;65652;53.132;18.026;2022-12-11T08:06:26;100417.15;;;-1.43;70.65
76728;BME280;65652;53.132;18.026;2022-12-11T08:08:55;100419.35;;;-1.42;70.69
76728;BME280;65652;53.132;18.026;2022-12-11T08:11:22;100422.80;;;-1.42;70.72
76728;BME280;65652;53.132;18.026;2022-12-11T08:13:50;100418.92;;;-1.41;70.85
76728;BME280;65652;53.132;18.026;2022-12-11T08:16:17;100416.70;;;-1.41;70.72
76728;BME280;65652;53.132;18.026;2022-12-11T08:18:46;100417.23;;;-1.42;70.74
76728;BME280;65652;53.132;18.026;2022-12-11T08:21:15;100418.63;;;-1.42;70.85
76728;BME280;65652;53.132;18.026;2022-12-11T08:23:43;100422.31;;;-1.47;70.76
76728;BME280;65652;53.132;18.026;2022-12-11T08:26:19;100422.31;;;-1.50;70.62
76728;BME280;65652;53.132;18.026;2022-12-11T08:28:46;100423.30;;;-1.53;70.56
76728;BME280;65652;53.132;18.026;2022-12-11T08:31:14;100423.45;;;-1.53;70.66
76728;BME280;65652;53.132;18.026;2022-12-11T08:33:42;100417.49;;;-1.51;70.57
76728;BME280;65652;53.132;18.026;2022-12-11T08:36:12;100417.09;;;-1.50;70.54
76728;BME280;65652;53.132;18.026;2022-12-11T08:38:39;100412.83;;;-1.48;70.52
76728;BME280;65652;53.132;18.026;2022-12-11T08:41:13;100415.11;;;-1.44;70.55
76728;BME280;65652;53.132;18.026;2022-12-11T08:43:41;100409.91;;;-1.44;70.41
76728;BME280;65652;53.132;18.026;2022-12-11T08:46:10;100403.41;;;-1.46;69.97
76728;BME280;65652;53.132;18.026;2022-12-11T08:48:39;100402.85;;;-1.49;69.78
76728;BME280;65652;53.132;18.026;2022-12-11T08:51:08;100405.73;;;-1.52;69.79
76728;BME280;65652;53.132;18.026;2022-12-11T08:53:36;100411.27;;;-1.55;69.73
76728;BME280;65652;53.132;18.026;2022-12-11T08:56:04;100421.14;;;-1.60;69.55
76728;BME280;65652;53.132;18.026;2022-12-11T08:58:32;100419.98;;;-1.65;69.44
76728;BME280;65652;53.132;18.026;2022-12-11T09:00:59;100422.42;;;-1.69;69.57
76728;BME280;65652;53.132;18.026;2022-12-11T09:03:26;100416.52;;;-1.73;69.51
76728;BME280;65652;53.132;18.026;2022-12-11T09:05:53;100421.11;;;-1.76;69.48
76728;BME280;65652;53.132;18.026;2022-12-11T09:08:19;100419.73;;;-1.72;69.43
76728;BME280;65652;53.132;18.026;2022-12-11T09:10:46;100421.73;;;-1.65;69.69
76728;BME280;65652;53.132;18.026;2022-12-11T09:13:13;100418.47;;;-1.58;69.69
76728;BME280;65652;53.132;18.026;2022-12-11T09:15:40;100414.53;;;-1.51;69.64
76728;BME280;65652;53.132;18.026;2022-12-11T09:18:07;100410.19;;;-1.43;69.65
76728;BME280;65652;53.132;18.026;2022-12-11T09:20:34;100406.61;;;-1.37;69.42
76728;BME280;65652;53.132;18.026;2022-12-11T09:23:01;100398.88;;;-1.33;69.53
76728;BME280;65652;53.132;18.026;2022-12-11T09:25:28;100397.98;;;-1.32;69.38
76728;BME280;65652;53.132;18.026;2022-12-11T09:27:55;100397.35;;;-1.31;69.39
76728;BME280;65652;53.132;18.026;2022-12-11T09:30:22;100391.55;;;-1.32;69.02
76728;BME280;65652;53.132;18.026;2022-12-11T09:32:49;100393.45;;;-1.36;68.93
76728;BME280;65652;53.132;18.026;2022-12-11T09:35:16;100395.79;;;-1.34;68.88
76728;BME280;65652;53.132;18.026;2022-12-11T09:37:42;100395.91;;;-1.33;68.83
76728;BME280;65652;53.132;18.026;2022-12-11T09:40:11;100387.85;;;-1.31;68.89
76728;BME280;65652;53.132;18.026;2022-12-11T09:45:12;100378.17;;;-1.39;68.39
76728;BME280;65652;53.132;18.026;2022-12-11T09:47:43;100369.23;;;-1.41;68.60
76728;BME280;65652;53.132;18.026;2022-12-11T09:50:31;100361.61;;;-1.37;68.71
76728;BME280;65652;53.132;18.026;2022-12-11T09:53:12;100359.52;;;-1.32;68.60
76728;BME280;65652;53.132;18.026;2022-12-11T09:55:53;100355.90;;;-1.28;68.74
76728;BME280;65652;53.132;18.026;2022-12-11T10:01:33;100351.09;;;-1.18;68.80
76728;BME280;65652;53.132;18.026;2022-12-11T10:09:57;100337.22;;;-1.03;68.66
76728;BME280;65652;53.132;18.026;2022-12-11T10:12:45;100322.63;;;-1.02;68.52
76728;BME280;65652;53.132;18.026;2022-12-11T10:15:32;100316.95;;;-0.99;68.82
76728;BME280;65652;53.132;18.026;2022-12-11T10:18:03;100306.91;;;-0.96;68.68
76728;BME280;65652;53.132;18.026;2022-12-11T10:20:34;100307.20;;;-0.95;68.82
76728;BME280;65652;53.132;18.026;2022-12-11T10:23:14;100305.15;;;-0.95;68.89
76728;BME280;65652;53.132;18.026;2022-12-11T10:25:51;100300.41;;;-0.97;68.99
76728;BME280;65652;53.132;18.026;2022-12-11T10:28:20;100298.27;;;-1.00;69.12
76728;BME280;65652;53.132;18.026;2022-12-11T10:33:35;100289.58;;;-0.92;69.32
76728;BME280;65652;53.132;18.026;2022-12-11T10:36:07;100287.80;;;-0.84;69.35
76728;BME280;65652;53.132;18.026;2022-12-11T10:38:39;100289.12;;;-0.75;69.42
76728;BME280;65652;53.132;18.026;2022-12-11T10:41:17;100286.42;;;-0.62;69.28
76728;BME280;65652;53.132;18.026;2022-12-11T10:43:46;100282.67;;;-0.53;69.19
76728;BME280;65652;53.132;18.026;2022-12-11T10:46:19;100278.21;;;-0.51;69.05
76728;BME280;65652;53.132;18.026;2022-12-11T10:48:57;100279.77;;;-0.50;68.91
76728;BME280;65652;53.132;18.026;2022-12-11T10:54:17;100265.27;;;-0.56;68.92
76728;BME280;65652;53.132;18.026;2022-12-11T10:56:53;100261.99;;;-0.59;68.89
76728;BME280;65652;53.132;18.026;2022-12-11T10:59:37;100255.11;;;-0.60;68.99
76728;BME280;65652;53.132;18.026;2022-12-11T11:02:06;100243.95;;;-0.59;69.15
76728;BME280;65652;53.132;18.026;2022-12-11T11:04:43;100238.84;;;-0.57;69.21
76728;BME280;65652;53.132;18.026;2022-12-11T11:07:14;100236.11;;;-0.55;68.99
76728;BME280;65652;53.132;18.026;2022-12-11T11:09:42;100228.71;;;-0.56;68.96
76728;BME280;65652;53.132;18.026;2022-12-11T11:12:22;100223.14;;;-0.56;69.14
76728;BME280;65652;53.132;18.026;2022-12-11T11:15:16;100221.16;;;-0.58;68.99
76728;BME280;65652;53.132;18.026;2022-12-11T11:17:51;100215.96;;;-0.57;68.84
76728;BME280;65652;53.132;18.026;2022-12-11T11:20:22;100209.56;;;-0.57;68.88
76728;BME280;65652;53.132;18.026;2022-12-11T11:22:53;100209.57;;;-0.51;69.05
76728;BME280;65652;53.132;18.026;2022-12-11T11:25:23;100205.67;;;-0.46;68.97
76728;BME280;65652;53.132;18.026;2022-12-11T11:27:55;100206.83;;;-0.42;68.88
76728;BME280;65652;53.132;18.026;2022-12-11T11:30:26;100206.88;;;-0.36;68.84
76728;BME280;65652;53.132;18.026;2022-12-11T11:33:00;100208.61;;;-0.29;68.86
76728;BME280;65652;53.132;18.026;2022-12-11T11:35:30;100206.71;;;-0.22;68.94
76728;BME280;65652;53.132;18.026;2022-12-11T11:41:52;100199.33;;;-0.17;68.53
76728;BME280;65652;53.132;18.026;2022-12-11T11:44:14;100200.38;;;-0.17;68.66
76728;BME280;65652;53.132;18.026;2022-12-11T11:46:47;100196.18;;;-0.17;68.87
76728;BME280;65652;53.132;18.026;2022-12-11T11:49:20;100198.87;;;-0.15;68.85
76728;BME280;65652;53.132;18.026;2022-12-11T11:52:11;100198.05;;;-0.16;68.92
76728;BME280;65652;53.132;18.026;2022-12-11T11:55:02;100197.36;;;-0.16;68.82
76728;BME280;65652;53.132;18.026;2022-12-11T11:57:39;100194.13;;;-0.20;68.56
76728;BME280;65652;53.132;18.026;2022-12-11T12:00:22;100196.60;;;-0.25;68.56
76728;BME280;65652;53.132;18.026;2022-12-11T12:02:54;100197.06;;;-0.30;68.61
76728;BME280;65652;53.132;18.026;2022-12-11T12:05:35;100198.85;;;-0.35;68.68
76728;BME280;65652;53.132;18.026;2022-12-11T12:25:57;100177.33;;;-0.41;68.14
76728;BME280;65652;53.132;18.026;2022-12-11T12:28:38;100180.47;;;-0.45;68.33
76728;BME280;65652;53.132;18.026;2022-12-11T12:32:12;100180.27;;;-0.48;68.11
76728;BME280;65652;53.132;18.026;2022-12-11T12:40:19;100186.37;;;-0.66;68.14
76728;BME280;65652;53.132;18.026;2022-12-11T12:42:58;100188.16;;;-0.74;68.32
76728;BME280;65652;53.132;18.026;2022-12-11T12:48:00;100180.15;;;-0.80;68.50
76728;BME280;65652;53.132;18.026;2022-12-11T12:50:35;100175.06;;;-0.78;68.51
76728;BME280;65652;53.132;18.026;2022-12-11T12:53:04;100173.34;;;-0.75;68.59
76728;BME280;65652;53.132;18.026;2022-12-11T12:55:33;100175.48;;;-0.70;68.67
76728;BME280;65652;53.132;18.026;2022-12-11T12:58:04;100176.88;;;-0.63;68.66
76728;BME280;65652;53.132;18.026;2022-12-11T13:00:38;100176.49;;;-0.56;68.81
76728;BME280;65652;53.132;18.026;2022-12-11T13:03:14;100167.16;;;-0.49;68.69
76728;BME280;65652;53.132;18.026;2022-12-11T13:08:29;100168.39;;;-0.53;68.80
76728;BME280;65652;53.132;18.026;2022-12-11T13:11:04;100165.65;;;-0.53;68.99
76728;BME280;65652;53.132;18.026;2022-12-11T13:13:48;100164.97;;;-0.54;68.89
76728;BME280;65652;53.132;18.026;2022-12-11T13:16:38;100164.42;;;-0.57;69.00
76728;BME280;65652;53.132;18.026;2022-12-11T13:26:49;100169.16;;;-0.68;69.21
76728;BME280;65652;53.132;18.026;2022-12-11T13:34:41;100162.86;;;-0.70;69.38
76728;BME280;65652;53.132;18.026;2022-12-11T13:37:40;100158.42;;;-0.68;69.41
76728;BME280;65652;53.132;18.026;2022-12-11T13:40:23;100155.16;;;-0.66;69.35
76728;BME280;65652;53.132;18.026;2022-12-11T13:42:52;100153.27;;;-0.66;69.56
76728;BME280;65652;53.132;18.026;2022-12-11T13:45:27;100153.31;;;-0.67;69.46
76728;BME280;65652;53.132;18.026;2022-12-11T13:47:56;100155.63;;;-0.71;69.50
76728;BME280;65652;53.132;18.026;2022-12-11T13:50:25;100159.16;;;-0.76;69.76
76728;BME280;65652;53.132;18.026;2022-12-11T13:53:01;100160.91;;;-0.79;69.75
76728;BME280;65652;53.132;18.026;2022-12-11T13:55:33;100167.11;;;-0.79;69.81
76728;BME280;65652;53.132;18.026;2022-12-11T13:58:00;100166.14;;;-0.81;69.89
76728;BME280;65652;53.132;18.026;2022-12-11T14:00:29;100167.30;;;-0.83;70.05
76728;BME280;65652;53.132;18.026;2022-12-11T14:03:01;100167.25;;;-0.85;70.20
76728;BME280;65652;53.132;18.026;2022-12-11T14:05:30;100170.89;;;-0.85;70.13
76728;BME280;65652;53.132;18.026;2022-12-11T14:07:59;100172.09;;;-0.86;70.28
76728;BME280;65652;53.132;18.026;2022-12-11T14:10:31;100174.67;;;-0.85;70.47
76728;BME280;65652;53.132;18.026;2022-12-11T14:15:26;100172.70;;;-0.84;70.55
76728;BME280;65652;53.132;18.026;2022-12-11T14:17:54;100170.39;;;-0.82;70.73
76728;BME280;65652;53.132;18.026;2022-12-11T14:20:29;100170.09;;;-0.80;70.98
76728;BME280;65652;53.132;18.026;2022-12-11T14:23:19;100166.52;;;-0.77;70.98